createdAt,value
2019-03-19T00:00:04.655Z,4.25
2019-03-19T00:01:10.076Z,4.12
2019-03-19T00:02:15.651Z,3.97
2019-03-19T00:03:21.349Z,3.86
2019-03-19T00:04:27.594Z,3.91
2019-03-19T00:05:32.800Z,4.05
2019-03-19T00:06:38.475Z,3.94
2019-03-19T00:07:44.050Z,3.86
2019-03-19T00:08:49.766Z,3.77
2019-03-19T00:09:55.337Z,3.87
2019-03-19T00:11:00.959Z,3.74
2019-03-19T00:12:06.515Z,3.80
2019-03-19T00:13:12.141Z,3.66
2019-03-19T00:14:17.760Z,3.63
2019-03-19T00:15:23.386Z,3.62
2019-03-19T00:16:28.976Z,3.60
2019-03-19T00:17:34.190Z,3.71
2019-03-19T00:18:39.797Z,3.83
2019-03-19T00:19:45.396Z,3.82
2019-03-19T00:20:50.971Z,3.88
2019-03-19T00:21:56.528Z,3.94
2019-03-19T00:23:02.176Z,4.07
2019-03-19T00:24:07.405Z,3.81
2019-03-19T00:25:12.266Z,3.95
2019-03-19T00:26:17.988Z,3.73
2019-03-19T00:27:23.556Z,3.73
2019-03-19T00:28:29.204Z,3.93
2019-03-19T00:29:34.825Z,4.01
2019-03-19T00:30:40.417Z,4.02
2019-03-19T00:31:45.992Z,3.90
2019-03-19T00:32:51.573Z,3.76
2019-03-19T00:33:57.205Z,3.80
2019-03-19T00:35:02.484Z,3.81
2019-03-19T00:36:08.031Z,3.73
2019-03-19T00:37:13.627Z,3.82
2019-03-19T00:38:19.254Z,3.79
2019-03-19T00:39:24.857Z,3.78
2019-03-19T00:40:30.442Z,3.68
2019-03-19T00:41:35.990Z,3.97
2019-03-19T00:42:41.557Z,3.84
2019-03-19T00:43:47.169Z,3.84
2019-03-19T00:44:52.804Z,3.98
2019-03-19T00:45:58.405Z,3.95
2019-03-19T00:47:04.009Z,3.71
2019-03-19T00:48:09.556Z,3.53
2019-03-19T00:49:15.192Z,3.45
2019-03-19T00:50:20.749Z,3.26
2019-03-19T00:51:26.346Z,3.29
2019-03-19T00:52:31.917Z,3.38
2019-03-19T00:53:37.514Z,3.34
2019-03-19T00:54:43.062Z,3.43
2019-03-19T00:55:48.657Z,3.27
2019-03-19T00:56:54.244Z,3.22
2019-03-19T00:57:59.857Z,3.24
2019-03-19T00:59:04.808Z,3.07
2019-03-19T01:00:12.113Z,3.16
2019-03-19T01:01:17.348Z,2.98
2019-03-19T01:02:22.914Z,2.95
2019-03-19T01:03:28.537Z,2.98
2019-03-19T01:04:34.143Z,2.98
2019-03-19T01:05:39.690Z,3.13
2019-03-19T01:06:45.307Z,3.25
2019-03-19T01:07:50.881Z,3.05
2019-03-19T01:08:56.112Z,3.04
2019-03-19T01:10:01.651Z,3.04
2019-03-19T01:11:07.220Z,2.94
2019-03-19T01:12:12.817Z,2.87
2019-03-19T01:13:18.381Z,2.95
2019-03-19T01:14:24.002Z,2.70
2019-03-19T01:15:29.595Z,2.71
2019-03-19T01:16:35.177Z,2.66
2019-03-19T01:17:40.448Z,2.70
2019-03-19T01:18:46.083Z,2.50
2019-03-19T01:19:51.625Z,2.52
2019-03-19T01:20:57.188Z,2.40
2019-03-19T01:22:02.783Z,2.44
2019-03-19T01:23:08.358Z,2.52
2019-03-19T01:24:13.943Z,2.53
2019-03-19T01:25:19.525Z,2.51
2019-03-19T01:26:25.146Z,2.31
2019-03-19T01:27:30.759Z,2.26
2019-03-19T01:28:36.349Z,2.25
2019-03-19T01:29:41.951Z,2.49
2019-03-19T01:30:47.552Z,2.73
2019-03-19T01:31:53.101Z,2.79
2019-03-19T01:32:58.687Z,2.86
2019-03-19T01:34:03.919Z,2.76
2019-03-19T01:35:09.217Z,2.66
2019-03-19T01:36:14.769Z,2.44
2019-03-19T01:37:20.388Z,2.43
2019-03-19T01:38:26.006Z,2.24
2019-03-19T01:39:31.603Z,2.31
2019-03-19T01:40:37.163Z,2.23
2019-03-19T01:41:42.733Z,2.38
2019-03-19T01:42:48.276Z,2.38
2019-03-19T01:43:53.834Z,2.29
2019-03-19T01:44:59.431Z,2.20
2019-03-19T01:46:04.351Z,2.00
2019-03-19T01:47:09.943Z,2.03
2019-03-19T01:48:15.519Z,1.97
2019-03-19T01:49:21.480Z,1.95
2019-03-19T01:50:27.030Z,1.97
2019-03-19T01:51:32.592Z,2.05
2019-03-19T01:52:37.794Z,2.06
2019-03-19T01:53:43.406Z,2.09
2019-03-19T01:54:48.979Z,2.00
2019-03-19T01:56:04.556Z,1.92
2019-03-19T01:57:00.155Z,1.91
2019-03-19T01:58:05.738Z,1.91
2019-03-19T01:59:11.358Z,1.98
2019-03-19T02:00:17.082Z,2.06
2019-03-19T02:01:22.654Z,2.06
2019-03-19T02:02:28.232Z,2.08
2019-03-19T02:03:33.825Z,2.00
2019-03-19T02:04:39.425Z,2.00
2019-03-19T02:05:45.090Z,1.90
2019-03-19T02:06:50.641Z,1.72
2019-03-19T02:07:56.229Z,1.70
2019-03-19T02:09:01.816Z,1.70
2019-03-19T02:10:06.839Z,1.82
2019-03-19T02:11:12.395Z,1.94
2019-03-19T02:12:17.986Z,2.24
2019-03-19T02:13:23.574Z,2.11
2019-03-19T02:14:29.161Z,1.96
2019-03-19T02:15:34.718Z,2.10
2019-03-19T02:16:40.286Z,2.03
2019-03-19T02:17:45.533Z,2.26
2019-03-19T02:18:51.119Z,2.21
2019-03-19T02:19:56.751Z,2.29
2019-03-19T02:21:01.954Z,2.33
2019-03-19T02:22:07.529Z,2.32
2019-03-19T02:23:13.106Z,2.27
2019-03-19T02:24:18.709Z,2.18
2019-03-19T02:25:24.360Z,2.11
2019-03-19T02:26:29.959Z,2.13
2019-03-19T02:27:35.537Z,2.23
2019-03-19T02:28:41.123Z,2.29
2019-03-19T02:29:46.722Z,2.20
2019-03-19T02:30:52.306Z,2.29
2019-03-19T02:31:57.943Z,2.32
2019-03-19T02:33:03.534Z,2.21
2019-03-19T02:34:09.090Z,2.31
2019-03-19T02:35:14.481Z,2.22
2019-03-19T02:36:19.965Z,2.19
2019-03-19T02:37:25.599Z,2.25
2019-03-19T02:38:31.165Z,2.39
2019-03-19T02:39:36.856Z,2.63
2019-03-19T02:40:42.642Z,2.49
2019-03-19T02:41:48.205Z,2.53
2019-03-19T02:42:53.797Z,2.54
2019-03-19T02:43:59.403Z,2.55
2019-03-19T02:45:04.345Z,2.52
2019-03-19T02:46:09.924Z,2.43
2019-03-19T02:47:15.511Z,2.32
2019-03-19T02:48:21.122Z,2.37
2019-03-19T02:49:26.710Z,2.31
2019-03-19T02:50:32.329Z,2.36
2019-03-19T02:51:37.903Z,2.34
2019-03-19T02:52:43.480Z,2.29
2019-03-19T02:53:49.049Z,2.52
2019-03-19T02:54:54.680Z,2.48
2019-03-19T02:56:00.284Z,2.33
2019-03-19T02:57:05.852Z,2.27
2019-03-19T02:58:11.401Z,2.30
2019-03-19T02:59:16.657Z,2.48
2019-03-19T03:00:22.305Z,2.39
2019-03-19T03:01:27.950Z,2.33
2019-03-19T03:02:33.546Z,2.23
2019-03-19T03:03:39.126Z,2.06
2019-03-19T03:04:44.794Z,1.95
2019-03-19T03:05:50.454Z,1.85
2019-03-19T03:06:56.040Z,2.09
2019-03-19T03:08:01.658Z,2.32
2019-03-19T03:09:06.585Z,2.34
2019-03-19T03:10:11.497Z,2.31
2019-03-19T03:11:17.145Z,2.24
2019-03-19T03:12:22.764Z,2.35
2019-03-19T03:13:28.336Z,2.32
2019-03-19T03:14:33.900Z,2.18
2019-03-19T03:15:39.552Z,2.03
2019-03-19T03:16:45.205Z,2.21
2019-03-19T03:17:50.409Z,2.13
2019-03-19T03:18:55.632Z,2.28
2019-03-19T03:20:01.209Z,2.19
2019-03-19T03:21:06.853Z,2.24
2019-03-19T03:22:12.434Z,2.17
2019-03-19T03:23:18.008Z,2.20
2019-03-19T03:24:23.586Z,2.34
2019-03-19T03:25:29.182Z,2.48
2019-03-19T03:26:46.824Z,2.57
2019-03-19T03:27:40.388Z,2.54
2019-03-19T03:28:46.029Z,2.51
2019-03-19T03:29:51.329Z,2.41
2019-03-19T03:30:56.980Z,2.41
2019-03-19T03:32:02.571Z,2.34
2019-03-19T03:33:08.149Z,2.50
2019-03-19T03:34:13.696Z,2.53
2019-03-19T03:35:19.315Z,2.43
2019-03-19T03:36:24.891Z,2.33
2019-03-19T03:37:30.451Z,2.21
2019-03-19T03:38:36.064Z,2.32
2019-03-19T03:39:41.661Z,2.46
2019-03-19T03:40:47.394Z,2.39
2019-03-19T03:41:53.132Z,2.41
2019-03-19T03:42:58.620Z,2.49
2019-03-19T03:44:03.822Z,2.40
2019-03-19T03:45:08.661Z,2.38
2019-03-19T03:46:14.295Z,2.42
2019-03-19T03:47:19.862Z,2.15
2019-03-19T03:48:25.170Z,2.15
2019-03-19T03:49:30.740Z,2.20
2019-03-19T03:50:36.392Z,2.07
2019-03-19T03:51:42.029Z,2.30
2019-03-19T03:52:47.594Z,2.21
2019-03-19T03:53:53.207Z,2.17
2019-03-19T03:54:58.772Z,2.13
2019-03-19T03:56:04.412Z,2.31
2019-03-19T03:57:10.027Z,2.17
2019-03-19T03:58:15.644Z,2.29
2019-03-19T03:59:20.887Z,2.31
2019-03-19T04:00:26.555Z,2.29
2019-03-19T04:01:32.192Z,2.30
2019-03-19T04:02:37.805Z,2.50
2019-03-19T04:03:43.427Z,2.56
2019-03-19T04:04:48.665Z,2.31
2019-03-19T04:05:54.307Z,2.30
2019-03-19T04:06:59.906Z,2.43
2019-03-19T04:08:05.199Z,2.44
2019-03-19T04:09:10.817Z,2.28
2019-03-19T04:10:16.590Z,2.26
2019-03-19T04:11:22.489Z,2.24
2019-03-19T04:12:28.090Z,2.33
2019-03-19T04:13:33.661Z,2.40
2019-03-19T04:14:39.285Z,2.36
2019-03-19T04:15:44.701Z,2.53
2019-03-19T04:16:50.292Z,2.66
2019-03-19T04:17:55.931Z,2.64
2019-03-19T04:19:01.531Z,2.79
2019-03-19T04:20:06.502Z,2.54
2019-03-19T04:21:12.158Z,2.47
2019-03-19T04:22:17.743Z,2.50
2019-03-19T04:23:23.362Z,2.62
2019-03-19T04:24:28.612Z,2.72
2019-03-19T04:25:34.059Z,2.85
2019-03-19T04:26:39.685Z,2.83
2019-03-19T04:27:45.307Z,2.60
2019-03-19T04:28:50.834Z,2.53
2019-03-19T04:29:56.088Z,2.38
2019-03-19T04:31:01.708Z,2.36
2019-03-19T04:32:07.327Z,2.34
2019-03-19T04:33:12.993Z,2.57
2019-03-19T04:34:18.554Z,2.58
2019-03-19T04:35:24.129Z,2.55
2019-03-19T04:36:29.798Z,2.55
2019-03-19T04:37:35.482Z,2.71
2019-03-19T04:38:40.776Z,2.70
2019-03-19T04:39:46.411Z,2.77
2019-03-19T04:40:51.995Z,2.70
2019-03-19T04:41:57.639Z,2.73
2019-03-19T04:43:03.244Z,2.59
2019-03-19T04:44:08.501Z,2.61
2019-03-19T04:45:13.404Z,2.57
2019-03-19T04:46:18.688Z,2.76
2019-03-19T04:47:24.269Z,2.96
2019-03-19T04:48:29.841Z,2.95
2019-03-19T04:49:35.414Z,2.82
2019-03-19T04:50:41.059Z,2.82
2019-03-19T04:51:46.709Z,3.07
2019-03-19T04:52:52.306Z,3.02
2019-03-19T04:53:57.895Z,3.01
2019-03-19T04:55:03.133Z,3.01
2019-03-19T04:56:08.697Z,2.89
2019-03-19T04:57:14.308Z,3.06
2019-03-19T04:58:19.923Z,3.09
2019-03-19T04:59:28.359Z,2.96
2019-03-19T05:00:33.966Z,2.97
2019-03-19T05:01:39.615Z,2.82
2019-03-19T05:02:45.215Z,2.94
2019-03-19T05:03:50.820Z,2.94
2019-03-19T05:04:56.398Z,2.90
2019-03-19T05:06:02.036Z,2.93
2019-03-19T05:07:07.311Z,3.23
2019-03-19T05:08:12.904Z,3.05
2019-03-19T05:09:18.730Z,3.06
2019-03-19T05:10:24.296Z,3.09
2019-03-19T05:11:30.525Z,3.19
2019-03-19T05:12:36.202Z,3.12
2019-03-19T05:13:41.796Z,2.93
2019-03-19T05:14:47.411Z,3.15
2019-03-19T05:15:53.007Z,3.26
2019-03-19T05:16:58.651Z,3.15
2019-03-19T05:18:03.883Z,3.30
2019-03-19T05:19:09.456Z,3.18
2019-03-19T05:20:15.227Z,3.22
2019-03-19T05:21:20.779Z,3.23
2019-03-19T05:22:26.446Z,3.28
2019-03-19T05:23:32.042Z,3.22
2019-03-19T05:24:37.594Z,3.18
2019-03-19T05:25:43.189Z,3.07
2019-03-19T05:26:48.818Z,3.19
2019-03-19T05:27:54.476Z,3.27
2019-03-19T05:29:00.148Z,3.36
2019-03-19T05:30:10.595Z,3.39
2019-03-19T05:31:16.309Z,3.29
2019-03-19T05:32:21.980Z,3.38
2019-03-19T05:33:27.607Z,3.20
2019-03-19T05:34:33.312Z,3.29
2019-03-19T05:35:38.945Z,3.26
2019-03-19T05:36:44.225Z,3.41
2019-03-19T05:37:49.868Z,3.40
2019-03-19T05:38:55.469Z,3.21
2019-03-19T05:40:01.175Z,3.37
2019-03-19T05:41:06.785Z,3.44
2019-03-19T05:42:12.400Z,3.51
2019-03-19T05:43:18.128Z,3.44
2019-03-19T05:44:23.707Z,3.53
2019-03-19T05:45:29.322Z,3.42
2019-03-19T05:46:34.938Z,3.44
2019-03-19T05:47:40.964Z,3.44
2019-03-19T05:48:46.239Z,3.38
2019-03-19T05:49:51.797Z,3.24
2019-03-19T05:50:57.406Z,3.32
2019-03-19T05:52:03.067Z,3.47
2019-03-19T05:53:08.677Z,3.36
2019-03-19T05:54:14.354Z,3.48
2019-03-19T05:55:19.581Z,3.39
2019-03-19T05:56:25.148Z,3.35
2019-03-19T05:57:30.824Z,3.43
2019-03-19T05:58:36.429Z,3.47
2019-03-19T05:59:42.016Z,3.29
2019-03-19T06:00:48.117Z,3.39
2019-03-19T06:01:53.703Z,3.51
2019-03-19T06:02:59.355Z,3.50
2019-03-19T06:04:04.903Z,3.39
2019-03-19T06:05:09.814Z,3.54
2019-03-19T06:06:15.401Z,3.38
2019-03-19T06:07:21.018Z,3.47
2019-03-19T06:08:26.757Z,3.59
2019-03-19T06:09:32.442Z,3.37
2019-03-19T06:10:38.065Z,3.46
2019-03-19T06:11:44.093Z,3.59
2019-03-19T06:12:49.736Z,3.53
2019-03-19T06:13:55.337Z,3.40
2019-03-19T06:15:00.953Z,3.35
2019-03-19T06:16:06.557Z,3.56
2019-03-19T06:17:11.817Z,3.67
2019-03-19T06:18:17.403Z,3.70
2019-03-19T06:19:22.993Z,3.78
2019-03-19T06:20:28.592Z,3.80
2019-03-19T06:21:34.234Z,3.90
2019-03-19T06:22:39.846Z,3.88
2019-03-19T06:23:45.474Z,3.75
2019-03-19T06:24:51.178Z,3.82
2019-03-19T06:25:56.792Z,3.75
2019-03-19T06:27:02.393Z,3.82
2019-03-19T06:28:07.662Z,3.89
2019-03-19T06:29:13.266Z,3.95
2019-03-19T06:30:18.819Z,3.83
2019-03-19T06:31:24.408Z,3.89
2019-03-19T06:32:29.989Z,3.83
2019-03-19T06:33:35.582Z,3.80
2019-03-19T06:34:41.125Z,3.87
2019-03-19T06:35:46.723Z,3.87
2019-03-19T06:36:52.314Z,3.84
2019-03-19T06:37:57.569Z,3.91
2019-03-19T06:39:02.946Z,4.07
2019-03-19T06:40:12.386Z,4.10
2019-03-19T06:41:17.952Z,4.07
2019-03-19T06:42:23.609Z,3.87
2019-03-19T06:43:29.196Z,3.85
2019-03-19T06:44:34.770Z,3.79
2019-03-19T06:45:40.373Z,3.91
2019-03-19T06:46:45.937Z,3.98
2019-03-19T06:47:51.186Z,4.07
2019-03-19T06:48:56.719Z,4.19
2019-03-19T06:50:02.311Z,4.13
2019-03-19T06:51:07.911Z,4.25
2019-03-19T06:52:13.504Z,4.31
2019-03-19T06:53:19.129Z,4.19
2019-03-19T06:54:24.731Z,3.97
2019-03-19T06:55:30.284Z,4.06
2019-03-19T06:56:35.509Z,4.23
2019-03-19T06:57:40.760Z,4.33
2019-03-19T06:58:46.342Z,4.35
2019-03-19T06:59:51.929Z,4.54
2019-03-19T07:00:57.548Z,4.33
2019-03-19T07:02:03.208Z,4.54
2019-03-19T07:03:08.503Z,4.45
2019-03-19T07:04:14.090Z,4.33
2019-03-19T07:05:18.964Z,4.28
2019-03-19T07:06:24.985Z,4.30
2019-03-19T07:07:30.158Z,4.26
2019-03-19T07:08:35.970Z,4.08
2019-03-19T07:09:41.595Z,4.26
2019-03-19T07:10:47.195Z,4.24
2019-03-19T07:11:52.807Z,4.14
2019-03-19T07:12:58.511Z,4.08
2019-03-19T07:14:03.728Z,4.04
2019-03-19T07:15:09.426Z,4.00
2019-03-19T07:16:15.031Z,4.10
2019-03-19T07:17:20.646Z,4.28
2019-03-19T07:18:26.269Z,4.30
2019-03-19T07:19:31.822Z,4.43
2019-03-19T07:20:37.374Z,4.22
2019-03-19T07:21:42.955Z,4.14
2019-03-19T07:22:48.550Z,4.19
2019-03-19T07:23:54.192Z,4.48
2019-03-19T07:24:59.792Z,4.46
2019-03-19T07:26:04.668Z,4.55
2019-03-19T07:27:10.274Z,4.54
2019-03-19T07:28:22.021Z,4.49
2019-03-19T07:29:21.504Z,4.55
2019-03-19T07:30:26.132Z,4.64
2019-03-19T07:31:31.743Z,4.79
2019-03-19T07:32:40.369Z,4.98
2019-03-19T07:33:45.995Z,5.03
2019-03-19T07:34:51.552Z,5.13
2019-03-19T07:35:56.752Z,5.10
2019-03-19T07:37:02.357Z,5.20
2019-03-19T07:38:07.609Z,5.18
2019-03-19T07:39:13.197Z,5.22
2019-03-19T07:40:18.822Z,5.35
2019-03-19T07:41:24.429Z,5.34
2019-03-19T07:42:30.048Z,5.47
2019-03-19T07:43:35.684Z,5.45
2019-03-19T07:44:40.916Z,5.60
2019-03-19T07:45:46.499Z,5.69
2019-03-19T07:46:52.082Z,5.69
2019-03-19T07:47:57.772Z,5.75
2019-03-19T07:49:03.359Z,5.76
2019-03-19T07:50:08.221Z,5.79
2019-03-19T07:51:13.806Z,5.74
2019-03-19T07:52:19.433Z,5.73
2019-03-19T07:53:25.095Z,5.54
2019-03-19T07:54:30.644Z,5.59
2019-03-19T07:55:36.211Z,5.76
2019-03-19T07:56:41.790Z,5.85
2019-03-19T07:57:47.001Z,5.85
2019-03-19T07:58:52.582Z,5.85
2019-03-19T07:59:58.190Z,5.65
2019-03-19T08:01:03.813Z,5.63
2019-03-19T08:02:09.419Z,5.52
2019-03-19T08:03:16.313Z,5.49
2019-03-19T08:04:20.650Z,5.66
2019-03-19T08:05:32.955Z,5.51
2019-03-19T08:06:32.831Z,5.52
2019-03-19T08:07:37.480Z,5.67
2019-03-19T08:08:43.087Z,5.64
2019-03-19T08:09:51.524Z,5.71
2019-03-19T08:10:57.148Z,5.60
2019-03-19T08:12:02.722Z,5.50
2019-03-19T08:13:08.309Z,5.38
2019-03-19T08:14:13.904Z,5.40
2019-03-19T08:15:19.460Z,5.54
2019-03-19T08:16:27.679Z,5.57
2019-03-19T08:17:30.678Z,5.42
2019-03-19T08:18:36.338Z,5.25
2019-03-19T08:19:41.955Z,5.40
2019-03-19T08:20:47.515Z,5.25
2019-03-19T08:21:53.128Z,5.01
2019-03-19T08:22:58.883Z,5.10
2019-03-19T08:24:04.457Z,4.74
2019-03-19T08:25:10.264Z,4.58
2019-03-19T08:26:16.013Z,4.52
2019-03-19T08:27:21.644Z,4.49
2019-03-19T08:28:27.293Z,4.55
2019-03-19T08:29:34.638Z,4.45
2019-03-19T08:30:38.704Z,4.33
2019-03-19T08:31:44.553Z,4.27
2019-03-19T08:32:49.845Z,4.31
2019-03-19T08:33:55.515Z,4.18
2019-03-19T08:35:01.131Z,4.42
2019-03-19T08:36:09.532Z,4.36
2019-03-19T08:37:11.718Z,4.30
2019-03-19T08:38:17.356Z,4.36
2019-03-19T08:39:23.054Z,4.33
2019-03-19T08:40:28.743Z,4.40
2019-03-19T08:41:34.065Z,4.32
2019-03-19T08:42:39.712Z,4.18
2019-03-19T08:43:45.367Z,3.95
2019-03-19T08:44:51.033Z,3.90
2019-03-19T08:45:56.742Z,3.89
2019-03-19T08:47:02.380Z,3.99
2019-03-19T08:48:08.035Z,3.80
2019-03-19T08:49:13.706Z,3.82
2019-03-19T08:50:19.541Z,3.78
2019-03-19T08:51:25.212Z,3.47
2019-03-19T08:52:30.857Z,3.47
2019-03-19T08:53:36.463Z,3.43
2019-03-19T08:54:42.171Z,3.28
2019-03-19T08:55:47.802Z,3.26
2019-03-19T08:56:53.118Z,3.18
2019-03-19T08:57:58.707Z,3.17
2019-03-19T08:59:06.022Z,3.19
2019-03-19T09:00:11.406Z,3.30
2019-03-19T09:01:17.050Z,3.52
2019-03-19T09:02:22.749Z,3.76
2019-03-19T09:03:28.457Z,3.77
2019-03-19T09:04:34.133Z,3.73
2019-03-19T09:05:39.391Z,3.69
2019-03-19T09:06:45.019Z,3.79
2019-03-19T09:07:50.640Z,3.98
2019-03-19T09:08:56.247Z,4.38
2019-03-19T09:10:01.889Z,4.46
2019-03-19T09:11:07.538Z,4.71
2019-03-19T09:12:13.243Z,4.56
2019-03-19T09:13:18.959Z,4.50
2019-03-19T09:14:24.672Z,4.74
2019-03-19T09:15:30.011Z,4.87
2019-03-19T09:16:35.689Z,4.95
2019-03-19T09:17:41.387Z,5.06
2019-03-19T09:18:47.185Z,5.08
2019-03-19T09:19:52.894Z,5.15
2019-03-19T09:20:58.651Z,5.36
2019-03-19T09:22:04.272Z,5.48
2019-03-19T09:23:09.929Z,5.39
2019-03-19T09:24:15.643Z,5.56
2019-03-19T09:25:20.888Z,5.62
2019-03-19T09:26:26.469Z,5.85
2019-03-19T09:27:32.125Z,5.52
2019-03-19T09:28:37.758Z,5.58
2019-03-19T09:29:43.380Z,5.69
2019-03-19T09:30:49.015Z,5.61
2019-03-19T09:31:54.737Z,5.50
2019-03-19T09:33:00.454Z,5.54
2019-03-19T09:34:06.108Z,5.65
2019-03-19T09:35:11.115Z,5.84
2019-03-19T09:36:16.873Z,5.81
2019-03-19T09:37:22.512Z,5.63
2019-03-19T09:38:28.207Z,5.83
2019-03-19T09:39:33.885Z,6.11
2019-03-19T09:40:39.513Z,6.31
2019-03-19T09:41:45.296Z,6.25
2019-03-19T09:42:50.987Z,6.26
2019-03-19T09:43:56.627Z,6.52
2019-03-19T09:45:02.262Z,6.53
2019-03-19T09:46:07.911Z,6.70
2019-03-19T09:47:13.638Z,6.51
2019-03-19T09:48:19.278Z,6.50
2019-03-19T09:49:24.916Z,6.26
2019-03-19T09:50:30.757Z,6.41
2019-03-19T09:51:36.357Z,6.34
2019-03-19T09:52:42.009Z,6.59
2019-03-19T09:53:47.668Z,6.54
2019-03-19T09:54:53.316Z,6.50
2019-03-19T09:55:58.943Z,6.56
2019-03-19T09:57:04.564Z,6.59
2019-03-19T09:58:10.213Z,6.31
2019-03-19T09:59:15.896Z,6.31
2019-03-19T10:00:20.928Z,6.22
2019-03-19T10:01:26.520Z,6.50
2019-03-19T10:02:32.210Z,6.65
2019-03-19T10:03:37.837Z,6.57
2019-03-19T10:04:43.471Z,6.21
2019-03-19T10:05:49.079Z,6.23
2019-03-19T10:06:54.676Z,6.16
2019-03-19T10:08:00.314Z,6.18
2019-03-19T10:09:05.285Z,6.40
2019-03-19T10:10:12.901Z,6.37
2019-03-19T10:11:18.578Z,6.32
2019-03-19T10:12:24.262Z,6.54
2019-03-19T10:13:29.970Z,6.66
2019-03-19T10:14:35.592Z,6.66
2019-03-19T10:15:41.239Z,6.68
2019-03-19T10:16:46.882Z,6.93
2019-03-19T10:17:52.526Z,7.02
2019-03-19T10:18:58.123Z,6.96
2019-03-19T10:20:03.100Z,6.92
2019-03-19T10:21:08.774Z,6.79
2019-03-19T10:22:15.296Z,6.88
2019-03-19T10:23:20.022Z,6.97
2019-03-19T10:24:25.638Z,7.11
2019-03-19T10:25:31.295Z,7.20
2019-03-19T10:26:36.934Z,7.39
2019-03-19T10:27:42.636Z,7.57
2019-03-19T10:28:48.228Z,7.62
2019-03-19T10:29:53.862Z,7.81
2019-03-19T10:30:59.540Z,7.85
2019-03-19T10:32:04.921Z,7.70
2019-03-19T10:33:10.529Z,7.71
2019-03-19T10:34:16.206Z,7.61
2019-03-19T10:35:21.495Z,7.38
2019-03-19T10:36:27.128Z,7.38
2019-03-19T10:37:32.948Z,7.23
2019-03-19T10:38:38.581Z,7.16
2019-03-19T10:39:44.231Z,7.11
2019-03-19T10:40:49.928Z,7.02
2019-03-19T10:41:55.597Z,6.97
2019-03-19T10:43:01.228Z,6.85
2019-03-19T10:44:06.844Z,6.87
2019-03-19T10:45:15.401Z,6.85
2019-03-19T10:46:21.074Z,6.88
2019-03-19T10:47:26.695Z,6.72
2019-03-19T10:48:32.291Z,6.70
2019-03-19T10:49:37.890Z,6.57
2019-03-19T10:50:43.536Z,6.54
2019-03-19T10:51:49.164Z,6.48
2019-03-19T10:52:54.450Z,6.21
2019-03-19T10:54:00.137Z,6.12
2019-03-19T10:55:05.080Z,5.83
2019-03-19T10:56:10.754Z,5.47
2019-03-19T10:57:16.437Z,5.13
2019-03-19T10:58:22.125Z,4.77
2019-03-19T10:59:27.770Z,4.79
2019-03-19T11:00:33.459Z,4.75
2019-03-19T11:01:39.064Z,4.77
2019-03-19T11:02:44.429Z,4.58
2019-03-19T11:03:50.057Z,4.49
2019-03-19T11:04:55.721Z,4.56
2019-03-19T11:06:01.454Z,4.79
2019-03-19T11:07:07.096Z,4.85
2019-03-19T11:08:12.731Z,4.73
2019-03-19T11:09:18.316Z,4.61
2019-03-19T11:10:23.709Z,4.59
2019-03-19T11:11:29.366Z,4.73
2019-03-19T11:12:34.997Z,4.89
2019-03-19T11:13:40.586Z,4.82
2019-03-19T11:14:46.262Z,4.89
2019-03-19T11:15:51.950Z,4.88
2019-03-19T11:16:57.635Z,5.01
2019-03-19T11:18:03.269Z,5.06
2019-03-19T11:19:08.893Z,5.17
2019-03-19T11:20:18.322Z,5.29
2019-03-19T11:21:23.992Z,5.42
2019-03-19T11:22:29.590Z,5.25
2019-03-19T11:23:35.321Z,5.35
2019-03-19T11:24:40.959Z,5.15
2019-03-19T11:25:54.162Z,5.19
2019-03-19T11:26:52.371Z,5.24
2019-03-19T11:27:58.026Z,5.13
2019-03-19T11:29:03.689Z,5.39
2019-03-19T11:30:09.446Z,5.45
2019-03-19T11:31:15.122Z,5.46
2019-03-19T11:32:20.800Z,5.53
2019-03-19T11:33:26.477Z,5.66
2019-03-19T11:34:32.116Z,5.83
2019-03-19T11:35:37.405Z,5.82
2019-03-19T11:36:43.213Z,5.71
2019-03-19T11:37:48.576Z,5.97
2019-03-19T11:38:54.209Z,5.93
2019-03-19T11:39:59.482Z,6.14
2019-03-19T11:41:04.472Z,6.38
2019-03-19T11:42:10.585Z,6.56
2019-03-19T11:43:16.256Z,6.76
2019-03-19T11:44:21.931Z,6.74
2019-03-19T11:45:27.162Z,6.91
2019-03-19T11:46:32.817Z,6.97
2019-03-19T11:47:38.417Z,7.22
2019-03-19T11:48:44.056Z,7.35
2019-03-19T11:49:49.713Z,7.61
2019-03-19T11:50:55.332Z,7.55
2019-03-19T11:52:00.971Z,7.81
2019-03-19T11:53:05.908Z,7.82
2019-03-19T11:54:11.595Z,8.05
2019-03-19T11:55:16.469Z,8.13
2019-03-19T11:56:22.148Z,8.05
2019-03-19T11:57:27.726Z,8.29
2019-03-19T11:58:33.337Z,8.54
2019-03-19T11:59:38.967Z,8.71
2019-03-19T12:00:44.761Z,8.75
2019-03-19T12:01:50.499Z,8.17
2019-03-19T12:02:56.200Z,7.65
2019-03-19T12:04:01.802Z,8.09
2019-03-19T12:05:06.912Z,8.20
2019-03-19T12:06:12.541Z,7.90
2019-03-19T12:07:18.229Z,7.58
2019-03-19T12:08:23.873Z,7.26
2019-03-19T12:09:29.522Z,7.43
2019-03-19T12:10:35.152Z,7.52
2019-03-19T12:11:40.831Z,7.43
2019-03-19T12:12:46.520Z,7.03
2019-03-19T12:13:52.199Z,6.89
2019-03-19T12:14:57.833Z,6.73
2019-03-19T12:16:03.142Z,6.59
2019-03-19T12:17:08.772Z,6.45
2019-03-19T12:18:14.424Z,6.60
2019-03-19T12:19:20.049Z,6.66
2019-03-19T12:20:25.657Z,6.60
2019-03-19T12:21:31.317Z,6.32
2019-03-19T12:22:36.902Z,5.97
2019-03-19T12:23:42.544Z,6.14
2019-03-19T12:24:48.164Z,6.34
2019-03-19T12:25:53.775Z,6.61
2019-03-19T12:26:59.467Z,6.61
2019-03-19T12:28:04.806Z,6.60
2019-03-19T12:29:10.425Z,6.66
2019-03-19T12:30:22.629Z,6.85
2019-03-19T12:31:25.178Z,6.99
2019-03-19T12:32:30.865Z,7.13
2019-03-19T12:33:40.800Z,6.79
2019-03-19T12:34:42.229Z,6.86
2019-03-19T12:35:47.919Z,6.83
2019-03-19T12:36:53.611Z,6.54
2019-03-19T12:37:59.228Z,6.76
2019-03-19T12:39:03.958Z,7.04
2019-03-19T12:40:10.802Z,7.13
2019-03-19T12:41:16.448Z,7.07
2019-03-19T12:42:22.148Z,6.99
2019-03-19T12:43:27.816Z,6.85
2019-03-19T12:44:33.094Z,6.83
2019-03-19T12:45:38.780Z,6.76
2019-03-19T12:46:44.429Z,7.00
2019-03-19T12:47:50.098Z,7.18
2019-03-19T12:48:55.755Z,7.31
2019-03-19T12:50:01.381Z,7.27
2019-03-19T12:51:07.005Z,7.11
2019-03-19T12:52:12.657Z,6.61
2019-03-19T12:53:18.264Z,6.38
2019-03-19T12:54:23.913Z,6.27
2019-03-19T12:55:29.600Z,6.44
2019-03-19T12:56:34.837Z,6.63
2019-03-19T12:57:40.120Z,6.92
2019-03-19T12:58:45.709Z,6.92
2019-03-19T12:59:51.292Z,6.98
2019-03-19T13:00:56.917Z,7.15
2019-03-19T13:02:02.559Z,7.18
2019-03-19T13:03:08.241Z,7.15
2019-03-19T13:04:13.840Z,7.01
2019-03-19T13:05:18.758Z,6.86
2019-03-19T13:06:24.352Z,6.98
2019-03-19T13:07:30.002Z,7.20
2019-03-19T13:08:35.587Z,7.16
2019-03-19T13:09:41.204Z,7.02
2019-03-19T13:10:46.829Z,7.12
2019-03-19T13:11:52.450Z,7.19
2019-03-19T13:12:58.164Z,7.35
2019-03-19T13:14:03.844Z,7.63
2019-03-19T13:15:09.133Z,7.80
2019-03-19T13:16:14.744Z,7.78
2019-03-19T13:17:20.375Z,7.31
2019-03-19T13:18:25.746Z,7.41
2019-03-19T13:19:31.352Z,7.54
2019-03-19T13:20:36.696Z,7.67
2019-03-19T13:21:42.285Z,7.86
2019-03-19T13:22:47.567Z,7.90
2019-03-19T13:23:53.131Z,8.10
2019-03-19T13:24:58.704Z,8.22
2019-03-19T13:26:04.058Z,8.32
2019-03-19T13:27:09.734Z,8.27
2019-03-19T13:28:15.385Z,8.30
2019-03-19T13:29:20.996Z,8.33
2019-03-19T13:30:26.747Z,8.57
2019-03-19T13:31:32.335Z,8.85
2019-03-19T13:32:37.993Z,9.07
2019-03-19T13:33:43.617Z,9.35
2019-03-19T13:34:49.233Z,9.41
2019-03-19T13:35:54.823Z,9.07
2019-03-19T13:37:00.430Z,8.75
2019-03-19T13:38:05.668Z,8.45
2019-03-19T13:39:11.288Z,8.13
2019-03-19T13:40:16.184Z,8.20
2019-03-19T13:41:21.803Z,8.03
2019-03-19T13:42:27.423Z,8.02
2019-03-19T13:43:33.037Z,8.22
2019-03-19T13:44:38.592Z,8.46
2019-03-19T13:45:44.176Z,8.56
2019-03-19T13:46:49.797Z,8.36
2019-03-19T13:47:55.484Z,8.21
2019-03-19T13:49:01.118Z,8.08
2019-03-19T13:50:06.765Z,8.06
2019-03-19T13:51:12.386Z,8.09
2019-03-19T13:52:17.952Z,8.06
2019-03-19T13:53:23.584Z,8.03
2019-03-19T13:54:29.178Z,8.27
2019-03-19T13:55:34.790Z,8.71
2019-03-19T13:56:40.406Z,8.91
2019-03-19T13:57:45.649Z,9.25
2019-03-19T13:58:51.266Z,9.29
2019-03-19T13:59:56.865Z,9.04
2019-03-19T14:01:02.455Z,8.95
2019-03-19T14:02:08.069Z,8.87
2019-03-19T14:03:13.684Z,9.06
2019-03-19T14:04:21.123Z,9.08
2019-03-19T14:05:25.156Z,9.36
2019-03-19T14:06:31.028Z,9.52
2019-03-19T14:07:36.642Z,8.89
2019-03-19T14:08:42.349Z,8.88
2019-03-19T14:09:48.105Z,8.99
2019-03-19T14:10:54.354Z,8.91
2019-03-19T14:11:59.361Z,8.87
2019-03-19T14:13:04.637Z,9.01
2019-03-19T14:14:10.319Z,8.57
2019-03-19T14:15:17.139Z,8.36
2019-03-19T14:16:22.772Z,8.16
2019-03-19T14:17:28.373Z,8.21
2019-03-19T14:18:33.996Z,8.00
2019-03-19T14:19:39.607Z,8.00
2019-03-19T14:20:45.213Z,7.96
2019-03-19T14:21:50.798Z,7.96
2019-03-19T14:22:56.470Z,8.09
2019-03-19T14:24:02.033Z,8.00
2019-03-19T14:25:07.004Z,7.84
2019-03-19T14:26:12.636Z,7.82
2019-03-19T14:27:18.225Z,7.81
2019-03-19T14:28:24.065Z,7.70
2019-03-19T14:29:29.750Z,7.90
2019-03-19T14:30:35.391Z,8.03
2019-03-19T14:31:41.016Z,8.06
2019-03-19T14:32:46.329Z,7.88